sensor_id;sensor_type;location;lat;lon;timestamp;P1;durP1;ratioP1;P2;durP2;ratioP2
54384;SDS011;40284;52.878;5.998;2024-03-25T00:00:44;23.63;;;5.75;;
54384;SDS011;40284;52.878;5.998;2024-03-25T00:03:10;23.70;;;3.65;;
54384;SDS011;40284;52.878;5.998;2024-03-25T00:05:36;17.98;;;3.88;;
54384;SDS011;40284;52.878;5.998;2024-03-25T00:08:02;23.63;;;4.93;;
54384;SDS011;40284;52.878;5.998;2024-03-25T00:10:28;23.33;;;4.32;;
54384;SDS011;40284;52.878;5.998;2024-03-25T00:12:54;23.75;;;3.58;;
54384;SDS011;40284;52.878;5.998;2024-03-25T00:15:21;25.17;;;5.00;;
54384;SDS011;40284;52.878;5.998;2024-03-25T00:17:50;14.05;;;3.22;;
54384;SDS011;40284;52.878;5.998;2024-03-25T00:20:16;17.58;;;3.90;;
54384;SDS011;40284;52.878;5.998;2024-03-25T00:22:43;20.30;;;3.75;;
54384;SDS011;40284;52.878;5.998;2024-03-25T00:25:09;21.10;;;3.95;;
54384;SDS011;40284;52.878;5.998;2024-03-25T00:27:35;21.10;;;4.60;;
54384;SDS011;40284;52.878;5.998;2024-03-25T00:30:02;22.52;;;3.63;;
54384;SDS011;40284;52.878;5.998;2024-03-25T00:32:28;25.30;;;4.70;;
54384;SDS011;40284;52.878;5.998;2024-03-25T00:34:54;15.38;;;3.60;;
54384;SDS011;40284;52.878;5.998;2024-03-25T00:37:20;19.17;;;3.65;;
54384;SDS011;40284;52.878;5.998;2024-03-25T00:39:46;19.17;;;4.88;;
54384;SDS011;40284;52.878;5.998;2024-03-25T00:42:12;23.25;;;4.93;;
54384;SDS011;40284;52.878;5.998;2024-03-25T00:44:38;29.02;;;3.63;;
54384;SDS011;40284;52.878;5.998;2024-03-25T00:47:04;21.33;;;4.38;;
54384;SDS011;40284;52.878;5.998;2024-03-25T00:49:30;25.35;;;5.82;;
54384;SDS011;40284;52.878;5.998;2024-03-25T00:51:57;23.48;;;4.10;;
54384;SDS011;40284;52.878;5.998;2024-03-25T00:54:23;23.45;;;4.65;;
54384;SDS011;40284;52.878;5.998;2024-03-25T00:56:49;20.45;;;4.60;;
54384;SDS011;40284;52.878;5.998;2024-03-25T00:59:16;27.58;;;3.72;;
54384;SDS011;40284;52.878;5.998;2024-03-25T01:01:42;21.98;;;4.35;;
54384;SDS011;40284;52.878;5.998;2024-03-25T01:04:08;17.73;;;4.22;;
54384;SDS011;40284;52.878;5.998;2024-03-25T01:06:34;27.38;;;4.55;;
54384;SDS011;40284;52.878;5.998;2024-03-25T01:09:00;19.67;;;3.58;;
54384;SDS011;40284;52.878;5.998;2024-03-25T01:11:27;19.83;;;4.18;;
54384;SDS011;40284;52.878;5.998;2024-03-25T01:13:53;14.75;;;3.45;;
54384;SDS011;40284;52.878;5.998;2024-03-25T01:16:19;19.40;;;4.57;;
54384;SDS011;40284;52.878;5.998;2024-03-25T01:18:45;24.30;;;3.80;;
54384;SDS011;40284;52.878;5.998;2024-03-25T01:21:11;27.17;;;4.03;;
54384;SDS011;40284;52.878;5.998;2024-03-25T01:23:37;30.55;;;5.53;;
54384;SDS011;40284;52.878;5.998;2024-03-25T01:26:03;25.70;;;4.95;;
54384;SDS011;40284;52.878;5.998;2024-03-25T01:28:29;19.65;;;3.95;;
54384;SDS011;40284;52.878;5.998;2024-03-25T01:30:55;20.17;;;3.30;;
54384;SDS011;40284;52.878;5.998;2024-03-25T01:33:21;24.67;;;4.13;;
54384;SDS011;40284;52.878;5.998;2024-03-25T01:35:47;21.30;;;4.32;;
54384;SDS011;40284;52.878;5.998;2024-03-25T01:38:14;19.65;;;4.20;;
54384;SDS011;40284;52.878;5.998;2024-03-25T01:40:40;25.15;;;4.72;;
54384;SDS011;40284;52.878;5.998;2024-03-25T01:43:06;16.75;;;4.60;;
54384;SDS011;40284;52.878;5.998;2024-03-25T01:45:33;19.83;;;3.92;;
54384;SDS011;40284;52.878;5.998;2024-03-25T01:48:03;20.02;;;3.42;;
54384;SDS011;40284;52.878;5.998;2024-03-25T01:50:31;24.35;;;4.75;;
54384;SDS011;40284;52.878;5.998;2024-03-25T01:52:58;24.00;;;4.47;;
54384;SDS011;40284;52.878;5.998;2024-03-25T01:55:26;23.30;;;4.45;;
54384;SDS011;40284;52.878;5.998;2024-03-25T01:57:53;19.35;;;4.32;;
54384;SDS011;40284;52.878;5.998;2024-03-25T02:00:19;17.35;;;3.35;;
54384;SDS011;40284;52.878;5.998;2024-03-25T02:02:46;21.45;;;4.03;;
54384;SDS011;40284;52.878;5.998;2024-03-25T02:05:13;25.77;;;4.15;;
54384;SDS011;40284;52.878;5.998;2024-03-25T02:07:40;21.98;;;3.78;;
54384;SDS011;40284;52.878;5.998;2024-03-25T02:10:07;30.27;;;5.95;;
54384;SDS011;40284;52.878;5.998;2024-03-25T02:12:40;24.85;;;5.25;;
54384;SDS011;40284;52.878;5.998;2024-03-25T02:15:06;25.02;;;5.07;;
54384;SDS011;40284;52.878;5.998;2024-03-25T02:17:33;19.92;;;3.58;;
54384;SDS011;40284;52.878;5.998;2024-03-25T02:19:59;23.40;;;3.33;;
54384;SDS011;40284;52.878;5.998;2024-03-25T02:22:25;14.43;;;2.55;;
54384;SDS011;40284;52.878;5.998;2024-03-25T02:24:52;18.40;;;3.70;;
54384;SDS011;40284;52.878;5.998;2024-03-25T02:27:19;18.63;;;4.72;;
54384;SDS011;40284;52.878;5.998;2024-03-25T02:29:45;16.13;;;3.50;;
54384;SDS011;40284;52.878;5.998;2024-03-25T02:32:11;16.75;;;3.28;;
54384;SDS011;40284;52.878;5.998;2024-03-25T02:34:39;33.75;;;3.33;;
54384;SDS011;40284;52.878;5.998;2024-03-25T02:37:05;17.73;;;4.60;;
54384;SDS011;40284;52.878;5.998;2024-03-25T02:39:31;20.05;;;4.15;;
54384;SDS011;40284;52.878;5.998;2024-03-25T02:41:57;16.15;;;3.58;;
54384;SDS011;40284;52.878;5.998;2024-03-25T02:44:23;18.08;;;2.97;;
54384;SDS011;40284;52.878;5.998;2024-03-25T02:46:50;21.60;;;3.78;;
54384;SDS011;40284;52.878;5.998;2024-03-25T02:49:17;13.85;;;3.50;;
54384;SDS011;40284;52.878;5.998;2024-03-25T02:51:43;16.13;;;3.28;;
54384;SDS011;40284;52.878;5.998;2024-03-25T02:54:09;15.77;;;3.88;;
54384;SDS011;40284;52.878;5.998;2024-03-25T02:56:35;12.77;;;4.18;;
54384;SDS011;40284;52.878;5.998;2024-03-25T02:59:02;16.33;;;2.80;;
54384;SDS011;40284;52.878;5.998;2024-03-25T03:01:28;14.50;;;3.42;;
54384;SDS011;40284;52.878;5.998;2024-03-25T03:03:54;16.90;;;3.28;;
54384;SDS011;40284;52.878;5.998;2024-03-25T03:06:20;18.05;;;3.47;;
54384;SDS011;40284;52.878;5.998;2024-03-25T03:08:47;20.85;;;3.45;;
54384;SDS011;40284;52.878;5.998;2024-03-25T03:11:13;16.90;;;4.28;;
54384;SDS011;40284;52.878;5.998;2024-03-25T03:13:39;19.90;;;3.15;;
54384;SDS011;40284;52.878;5.998;2024-03-25T03:16:05;23.02;;;3.40;;
54384;SDS011;40284;52.878;5.998;2024-03-25T03:18:31;18.02;;;4.30;;
54384;SDS011;40284;52.878;5.998;2024-03-25T03:20:57;16.00;;;3.92;;
54384;SDS011;40284;52.878;5.998;2024-03-25T03:23:23;19.80;;;4.60;;
54384;SDS011;40284;52.878;5.998;2024-03-25T03:25:49;16.73;;;2.92;;
54384;SDS011;40284;52.878;5.998;2024-03-25T03:28:16;17.30;;;3.15;;
54384;SDS011;40284;52.878;5.998;2024-03-25T03:30:43;15.55;;;3.25;;
54384;SDS011;40284;52.878;5.998;2024-03-25T03:33:09;15.30;;;2.72;;
54384;SDS011;40284;52.878;5.998;2024-03-25T03:35:36;15.55;;;2.65;;
54384;SDS011;40284;52.878;5.998;2024-03-25T03:38:02;11.23;;;3.15;;
54384;SDS011;40284;52.878;5.998;2024-03-25T03:40:28;21.60;;;3.35;;
54384;SDS011;40284;52.878;5.998;2024-03-25T03:42:55;19.33;;;3.42;;
54384;SDS011;40284;52.878;5.998;2024-03-25T03:45:23;27.70;;;3.80;;
54384;SDS011;40284;52.878;5.998;2024-03-25T03:47:49;21.38;;;3.53;;
54384;SDS011;40284;52.878;5.998;2024-03-25T03:50:15;14.55;;;4.53;;
54384;SDS011;40284;52.878;5.998;2024-03-25T03:52:41;18.65;;;3.70;;
54384;SDS011;40284;52.878;5.998;2024-03-25T03:55:08;14.90;;;3.13;;
54384;SDS011;40284;52.878;5.998;2024-03-25T03:57:34;14.30;;;3.88;;
54384;SDS011;40284;52.878;5.998;2024-03-25T04:00:00;18.00;;;3.47;;
54384;SDS011;40284;52.878;5.998;2024-03-25T04:02:27;18.15;;;5.18;;
54384;SDS011;40284;52.878;5.998;2024-03-25T04:04:53;19.77;;;3.30;;
54384;SDS011;40284;52.878;5.998;2024-03-25T04:07:20;22.75;;;4.05;;
54384;SDS011;40284;52.878;5.998;2024-03-25T04:09:51;20.25;;;3.13;;
54384;SDS011;40284;52.878;5.998;2024-03-25T04:12:18;16.55;;;4.00;;
54384;SDS011;40284;52.878;5.998;2024-03-25T04:14:46;17.10;;;4.38;;
54384;SDS011;40284;52.878;5.998;2024-03-25T04:17:14;22.35;;;3.85;;
54384;SDS011;40284;52.878;5.998;2024-03-25T04:19:40;17.13;;;3.97;;
54384;SDS011;40284;52.878;5.998;2024-03-25T04:22:06;18.50;;;3.45;;
54384;SDS011;40284;52.878;5.998;2024-03-25T04:24:32;20.35;;;4.35;;
54384;SDS011;40284;52.878;5.998;2024-03-25T04:26:59;20.40;;;3.65;;
54384;SDS011;40284;52.878;5.998;2024-03-25T04:29:25;13.85;;;5.55;;
54384;SDS011;40284;52.878;5.998;2024-03-25T04:31:51;17.92;;;3.00;;
54384;SDS011;40284;52.878;5.998;2024-03-25T04:34:17;10.32;;;2.33;;
54384;SDS011;40284;52.878;5.998;2024-03-25T04:36:45;9.48;;;2.83;;
54384;SDS011;40284;52.878;5.998;2024-03-25T04:39:12;16.75;;;3.92;;
54384;SDS011;40284;52.878;5.998;2024-03-25T04:41:38;12.27;;;1.80;;
54384;SDS011;40284;52.878;5.998;2024-03-25T04:44:04;13.00;;;2.63;;
54384;SDS011;40284;52.878;5.998;2024-03-25T04:46:30;15.35;;;2.88;;
54384;SDS011;40284;52.878;5.998;2024-03-25T04:48:56;15.43;;;2.17;;
54384;SDS011;40284;52.878;5.998;2024-03-25T04:51:22;10.98;;;2.30;;
54384;SDS011;40284;52.878;5.998;2024-03-25T04:53:48;16.85;;;2.65;;
54384;SDS011;40284;52.878;5.998;2024-03-25T04:56:14;15.55;;;2.25;;
54384;SDS011;40284;52.878;5.998;2024-03-25T04:58:40;9.75;;;2.00;;
54384;SDS011;40284;52.878;5.998;2024-03-25T05:01:06;14.98;;;2.60;;
54384;SDS011;40284;52.878;5.998;2024-03-25T05:03:32;15.07;;;2.63;;
54384;SDS011;40284;52.878;5.998;2024-03-25T05:05:58;11.32;;;2.15;;
54384;SDS011;40284;52.878;5.998;2024-03-25T05:08:24;9.82;;;3.20;;
54384;SDS011;40284;52.878;5.998;2024-03-25T05:10:50;13.23;;;2.35;;
54384;SDS011;40284;52.878;5.998;2024-03-25T05:13:16;11.65;;;2.92;;
54384;SDS011;40284;52.878;5.998;2024-03-25T05:15:49;11.20;;;2.65;;
54384;SDS011;40284;52.878;5.998;2024-03-25T05:18:16;12.93;;;2.42;;
54384;SDS011;40284;52.878;5.998;2024-03-25T05:20:42;8.27;;;2.17;;
54384;SDS011;40284;52.878;5.998;2024-03-25T05:23:08;12.35;;;2.33;;
54384;SDS011;40284;52.878;5.998;2024-03-25T05:25:34;10.77;;;2.33;;
54384;SDS011;40284;52.878;5.998;2024-03-25T05:28:00;14.57;;;5.43;;
54384;SDS011;40284;52.878;5.998;2024-03-25T05:30:26;16.77;;;2.30;;
54384;SDS011;40284;52.878;5.998;2024-03-25T05:32:53;11.13;;;3.05;;
54384;SDS011;40284;52.878;5.998;2024-03-25T05:35:19;20.50;;;3.70;;
54384;SDS011;40284;52.878;5.998;2024-03-25T05:37:46;17.70;;;2.63;;
54384;SDS011;40284;52.878;5.998;2024-03-25T05:40:12;20.58;;;3.30;;
54384;SDS011;40284;52.878;5.998;2024-03-25T05:42:40;8.57;;;2.80;;
54384;SDS011;40284;52.878;5.998;2024-03-25T05:45:06;15.38;;;4.53;;
54384;SDS011;40284;52.878;5.998;2024-03-25T05:47:34;20.08;;;3.80;;
54384;SDS011;40284;52.878;5.998;2024-03-25T05:50:00;14.52;;;3.58;;
54384;SDS011;40284;52.878;5.998;2024-03-25T05:52:29;10.32;;;2.60;;
54384;SDS011;40284;52.878;5.998;2024-03-25T05:54:55;9.60;;;2.53;;
54384;SDS011;40284;52.878;5.998;2024-03-25T05:57:21;11.38;;;2.88;;
54384;SDS011;40284;52.878;5.998;2024-03-25T05:59:47;17.88;;;2.63;;
54384;SDS011;40284;52.878;5.998;2024-03-25T06:02:13;16.50;;;2.20;;
54384;SDS011;40284;52.878;5.998;2024-03-25T06:04:39;9.88;;;2.08;;
54384;SDS011;40284;52.878;5.998;2024-03-25T06:07:05;15.55;;;2.55;;
54384;SDS011;40284;52.878;5.998;2024-03-25T06:09:31;11.88;;;2.90;;
54384;SDS011;40284;52.878;5.998;2024-03-25T06:11:57;12.73;;;2.10;;
54384;SDS011;40284;52.878;5.998;2024-03-25T06:14:23;10.57;;;2.47;;
54384;SDS011;40284;52.878;5.998;2024-03-25T06:16:50;6.93;;;1.95;;
54384;SDS011;40284;52.878;5.998;2024-03-25T06:19:16;17.25;;;3.17;;
54384;SDS011;40284;52.878;5.998;2024-03-25T06:21:42;9.43;;;2.15;;
54384;SDS011;40284;52.878;5.998;2024-03-25T06:24:08;12.05;;;2.30;;
54384;SDS011;40284;52.878;5.998;2024-03-25T06:26:34;11.15;;;3.25;;
54384;SDS011;40284;52.878;5.998;2024-03-25T06:29:00;10.30;;;2.78;;
54384;SDS011;40284;52.878;5.998;2024-03-25T06:31:27;14.77;;;2.53;;
54384;SDS011;40284;52.878;5.998;2024-03-25T06:34:12;10.07;;;2.42;;
54384;SDS011;40284;52.878;5.998;2024-03-25T06:36:47;9.35;;;2.45;;
54384;SDS011;40284;52.878;5.998;2024-03-25T06:39:13;11.82;;;2.40;;
54384;SDS011;40284;52.878;5.998;2024-03-25T06:41:40;15.40;;;2.33;;
54384;SDS011;40284;52.878;5.998;2024-03-25T06:44:06;12.30;;;2.25;;
54384;SDS011;40284;52.878;5.998;2024-03-25T06:46:32;10.98;;;2.72;;
54384;SDS011;40284;52.878;5.998;2024-03-25T06:48:58;12.55;;;3.00;;
54384;SDS011;40284;52.878;5.998;2024-03-25T06:51:25;14.30;;;2.80;;
54384;SDS011;40284;52.878;5.998;2024-03-25T06:53:51;10.77;;;2.97;;
54384;SDS011;40284;52.878;5.998;2024-03-25T06:56:17;11.57;;;2.90;;
54384;SDS011;40284;52.878;5.998;2024-03-25T06:58:43;9.63;;;2.63;;
54384;SDS011;40284;52.878;5.998;2024-03-25T07:01:09;11.18;;;3.13;;
54384;SDS011;40284;52.878;5.998;2024-03-25T07:03:39;12.18;;;2.63;;
54384;SDS011;40284;52.878;5.998;2024-03-25T07:06:06;10.98;;;2.83;;
54384;SDS011;40284;52.878;5.998;2024-03-25T07:08:32;9.80;;;2.78;;
54384;SDS011;40284;52.878;5.998;2024-03-25T07:10:58;12.02;;;3.08;;
54384;SDS011;40284;52.878;5.998;2024-03-25T07:13:24;9.90;;;3.47;;
54384;SDS011;40284;52.878;5.998;2024-03-25T07:15:51;13.45;;;3.47;;
54384;SDS011;40284;52.878;5.998;2024-03-25T07:18:17;15.48;;;5.10;;
54384;SDS011;40284;52.878;5.998;2024-03-25T07:20:43;14.73;;;3.55;;
54384;SDS011;40284;52.878;5.998;2024-03-25T07:23:10;14.02;;;2.35;;
54384;SDS011;40284;52.878;5.998;2024-03-25T07:25:36;15.93;;;3.20;;
54384;SDS011;40284;52.878;5.998;2024-03-25T07:28:02;13.65;;;2.60;;
54384;SDS011;40284;52.878;5.998;2024-03-25T07:30:28;18.48;;;3.97;;
54384;SDS011;40284;52.878;5.998;2024-03-25T07:32:58;11.98;;;2.90;;
54384;SDS011;40284;52.878;5.998;2024-03-25T07:35:24;13.70;;;2.75;;
54384;SDS011;40284;52.878;5.998;2024-03-25T07:37:50;12.57;;;3.35;;
54384;SDS011;40284;52.878;5.998;2024-03-25T07:40:19;10.77;;;2.72;;
54384;SDS011;40284;52.878;5.998;2024-03-25T07:42:46;17.08;;;3.03;;
54384;SDS011;40284;52.878;5.998;2024-03-25T07:45:12;12.45;;;2.75;;
54384;SDS011;40284;52.878;5.998;2024-03-25T07:47:39;11.77;;;2.83;;
54384;SDS011;40284;52.878;5.998;2024-03-25T07:50:05;17.80;;;3.63;;
54384;SDS011;40284;52.878;5.998;2024-03-25T07:52:31;16.58;;;2.80;;
54384;SDS011;40284;52.878;5.998;2024-03-25T07:54:57;17.00;;;2.67;;
54384;SDS011;40284;52.878;5.998;2024-03-25T07:57:24;12.45;;;2.38;;
54384;SDS011;40284;52.878;5.998;2024-03-25T07:59:50;15.45;;;3.33;;
54384;SDS011;40284;52.878;5.998;2024-03-25T08:02:16;11.00;;;3.13;;
54384;SDS011;40284;52.878;5.998;2024-03-25T08:04:42;14.43;;;3.58;;
54384;SDS011;40284;52.878;5.998;2024-03-25T08:07:08;14.23;;;2.92;;
54384;SDS011;40284;52.878;5.998;2024-03-25T08:09:34;15.75;;;3.10;;
54384;SDS011;40284;52.878;5.998;2024-03-25T08:12:00;18.38;;;3.17;;
54384;SDS011;40284;52.878;5.998;2024-03-25T08:14:26;20.38;;;4.78;;
54384;SDS011;40284;52.878;5.998;2024-03-25T08:16:53;15.43;;;3.20;;
54384;SDS011;40284;52.878;5.998;2024-03-25T08:19:19;16.27;;;2.97;;
54384;SDS011;40284;52.878;5.998;2024-03-25T08:21:45;19.70;;;4.75;;
54384;SDS011;40284;52.878;5.998;2024-03-25T08:24:11;12.45;;;3.50;;
54384;SDS011;40284;52.878;5.998;2024-03-25T08:26:37;15.50;;;3.72;;
54384;SDS011;40284;52.878;5.998;2024-03-25T08:29:03;20.60;;;4.00;;
54384;SDS011;40284;52.878;5.998;2024-03-25T08:31:29;15.88;;;3.42;;
54384;SDS011;40284;52.878;5.998;2024-03-25T08:33:55;16.88;;;3.38;;
54384;SDS011;40284;52.878;5.998;2024-03-25T08:36:21;10.45;;;4.00;;
54384;SDS011;40284;52.878;5.998;2024-03-25T08:38:48;13.52;;;3.05;;
54384;SDS011;40284;52.878;5.998;2024-03-25T08:41:14;15.05;;;2.70;;
54384;SDS011;40284;52.878;5.998;2024-03-25T08:43:40;14.10;;;2.92;;
54384;SDS011;40284;52.878;5.998;2024-03-25T08:46:06;19.08;;;3.95;;
54384;SDS011;40284;52.878;5.998;2024-03-25T08:48:32;14.38;;;3.58;;
54384;SDS011;40284;52.878;5.998;2024-03-25T08:50:59;18.52;;;4.60;;
54384;SDS011;40284;52.878;5.998;2024-03-25T08:53:25;9.65;;;2.83;;
54384;SDS011;40284;52.878;5.998;2024-03-25T08:55:51;11.02;;;3.65;;
54384;SDS011;40284;52.878;5.998;2024-03-25T08:58:17;13.90;;;4.57;;
54384;SDS011;40284;52.878;5.998;2024-03-25T09:00:43;9.60;;;3.72;;
54384;SDS011;40284;52.878;5.998;2024-03-25T09:03:09;8.73;;;3.00;;
54384;SDS011;40284;52.878;5.998;2024-03-25T09:05:38;10.15;;;2.20;;
54384;SDS011;40284;52.878;5.998;2024-03-25T09:08:05;9.52;;;2.40;;
54384;SDS011;40284;52.878;5.998;2024-03-25T09:10:31;8.25;;;2.10;;
54384;SDS011;40284;52.878;5.998;2024-03-25T09:13:16;12.52;;;2.45;;
54384;SDS011;40284;52.878;5.998;2024-03-25T09:15:42;17.20;;;3.88;;
54384;SDS011;40284;52.878;5.998;2024-03-25T09:18:08;11.50;;;3.78;;
54384;SDS011;40284;52.878;5.998;2024-03-25T09:20:34;16.20;;;4.28;;
54384;SDS011;40284;52.878;5.998;2024-03-25T09:23:00;18.30;;;4.90;;
54384;SDS011;40284;52.878;5.998;2024-03-25T09:25:27;13.65;;;3.95;;
54384;SDS011;40284;52.878;5.998;2024-03-25T09:27:53;17.23;;;3.30;;
54384;SDS011;40284;52.878;5.998;2024-03-25T09:30:19;7.78;;;2.25;;
54384;SDS011;40284;52.878;5.998;2024-03-25T09:32:45;18.75;;;3.20;;
54384;SDS011;40284;52.878;5.998;2024-03-25T09:35:11;12.18;;;4.13;;
54384;SDS011;40284;52.878;5.998;2024-03-25T09:37:38;12.90;;;3.35;;
54384;SDS011;40284;52.878;5.998;2024-03-25T09:40:04;14.10;;;3.95;;
54384;SDS011;40284;52.878;5.998;2024-03-25T09:42:48;16.73;;;2.97;;
54384;SDS011;40284;52.878;5.998;2024-03-25T09:45:17;16.92;;;3.75;;
54384;SDS011;40284;52.878;5.998;2024-03-25T09:47:46;9.32;;;2.40;;
54384;SDS011;40284;52.878;5.998;2024-03-25T09:50:13;12.40;;;3.25;;
54384;SDS011;40284;52.878;5.998;2024-03-25T09:52:44;14.20;;;2.47;;
54384;SDS011;40284;52.878;5.998;2024-03-25T09:55:10;18.65;;;3.00;;
54384;SDS011;40284;52.878;5.998;2024-03-25T09:57:36;16.30;;;3.53;;
54384;SDS011;40284;52.878;5.998;2024-03-25T10:00:04;13.60;;;2.83;;
54384;SDS011;40284;52.878;5.998;2024-03-25T10:02:31;11.95;;;3.10;;
54384;SDS011;40284;52.878;5.998;2024-03-25T10:04:59;15.60;;;3.08;;
54384;SDS011;40284;52.878;5.998;2024-03-25T10:07:26;9.10;;;2.40;;
54384;SDS011;40284;52.878;5.998;2024-03-25T10:09:52;14.77;;;2.97;;
54384;SDS011;40284;52.878;5.998;2024-03-25T10:12:18;19.60;;;2.92;;
54384;SDS011;40284;52.878;5.998;2024-03-25T10:14:45;13.88;;;2.85;;
54384;SDS011;40284;52.878;5.998;2024-03-25T10:17:11;13.45;;;2.42;;
54384;SDS011;40284;52.878;5.998;2024-03-25T10:19:37;12.30;;;3.17;;
54384;SDS011;40284;52.878;5.998;2024-03-25T10:22:04;8.95;;;2.22;;
54384;SDS011;40284;52.878;5.998;2024-03-25T10:24:37;12.20;;;2.65;;
54384;SDS011;40284;52.878;5.998;2024-03-25T10:27:04;9.98;;;2.33;;
54384;SDS011;40284;52.878;5.998;2024-03-25T10:29:30;9.68;;;2.33;;
54384;SDS011;40284;52.878;5.998;2024-03-25T10:31:59;15.93;;;2.55;;
54384;SDS011;40284;52.878;5.998;2024-03-25T10:34:25;9.18;;;2.13;;
54384;SDS011;40284;52.878;5.998;2024-03-25T10:36:52;9.40;;;2.10;;
54384;SDS011;40284;52.878;5.998;2024-03-25T10:39:23;12.85;;;2.13;;
54384;SDS011;40284;52.878;5.998;2024-03-25T10:41:52;9.18;;;2.92;;
54384;SDS011;40284;52.878;5.998;2024-03-25T10:44:19;8.68;;;2.45;;
54384;SDS011;40284;52.878;5.998;2024-03-25T10:46:45;11.15;;;2.40;;
54384;SDS011;40284;52.878;5.998;2024-03-25T10:49:21;12.75;;;2.97;;
54384;SDS011;40284;52.878;5.998;2024-03-25T10:51:49;18.20;;;3.03;;
54384;SDS011;40284;52.878;5.998;2024-03-25T10:54:15;9.30;;;2.00;;
54384;SDS011;40284;52.878;5.998;2024-03-25T10:56:42;6.65;;;2.05;;
54384;SDS011;40284;52.878;5.998;2024-03-25T10:59:08;9.88;;;2.63;;
54384;SDS011;40284;52.878;5.998;2024-03-25T11:01:36;12.50;;;2.35;;
54384;SDS011;40284;52.878;5.998;2024-03-25T11:04:03;9.32;;;2.33;;
54384;SDS011;40284;52.878;5.998;2024-03-25T11:06:31;7.82;;;1.73;;
54384;SDS011;40284;52.878;5.998;2024-03-25T11:08:58;9.05;;;2.63;;
54384;SDS011;40284;52.878;5.998;2024-03-25T11:11:30;11.70;;;2.33;;
54384;SDS011;40284;52.878;5.998;2024-03-25T11:13:57;11.70;;;2.53;;
54384;SDS011;40284;52.878;5.998;2024-03-25T11:16:28;11.50;;;1.92;;
54384;SDS011;40284;52.878;5.998;2024-03-25T11:19:04;8.77;;;2.25;;
54384;SDS011;40284;52.878;5.998;2024-03-25T11:21:32;7.57;;;2.13;;
54384;SDS011;40284;52.878;5.998;2024-03-25T11:24:05;8.07;;;2.38;;
54384;SDS011;40284;52.878;5.998;2024-03-25T11:26:32;12.77;;;3.45;;
54384;SDS011;40284;52.878;5.998;2024-03-25T11:29:01;7.72;;;1.70;;
54384;SDS011;40284;52.878;5.998;2024-03-25T11:31:27;9.57;;;2.10;;
54384;SDS011;40284;52.878;5.998;2024-03-25T11:33:53;8.15;;;2.55;;
54384;SDS011;40284;52.878;5.998;2024-03-25T11:36:20;5.70;;;1.77;;
54384;SDS011;40284;52.878;5.998;2024-03-25T11:39:02;10.90;;;2.42;;
54384;SDS011;40284;52.878;5.998;2024-03-25T11:41:32;9.23;;;1.98;;
54384;SDS011;40284;52.878;5.998;2024-03-25T11:43:59;10.30;;;2.13;;
54384;SDS011;40284;52.878;5.998;2024-03-25T11:46:25;15.40;;;2.78;;
54384;SDS011;40284;52.878;5.998;2024-03-25T11:48:51;15.60;;;3.20;;
54384;SDS011;40284;52.878;5.998;2024-03-25T11:51:18;8.70;;;2.50;;
54384;SDS011;40284;52.878;5.998;2024-03-25T11:53:44;13.88;;;3.08;;
54384;SDS011;40284;52.878;5.998;2024-03-25T11:56:11;10.85;;;2.80;;
54384;SDS011;40284;52.878;5.998;2024-03-25T11:58:37;10.48;;;2.45;;
54384;SDS011;40284;52.878;5.998;2024-03-25T12:01:03;9.48;;;2.33;;
54384;SDS011;40284;52.878;5.998;2024-03-25T12:03:30;13.90;;;3.20;;
54384;SDS011;40284;52.878;5.998;2024-03-25T12:05:56;8.38;;;2.65;;
54384;SDS011;40284;52.878;5.998;2024-03-25T12:08:23;12.25;;;2.47;;
54384;SDS011;40284;52.878;5.998;2024-03-25T12:10:53;14.25;;;2.70;;
54384;SDS011;40284;52.878;5.998;2024-03-25T12:13:37;13.93;;;1.95;;
54384;SDS011;40284;52.878;5.998;2024-03-25T12:16:06;5.72;;;1.73;;
54384;SDS011;40284;52.878;5.998;2024-03-25T12:18:35;15.05;;;2.20;;
54384;SDS011;40284;52.878;5.998;2024-03-25T12:21:04;12.88;;;2.53;;
54384;SDS011;40284;52.878;5.998;2024-03-25T12:23:30;9.30;;;2.22;;
54384;SDS011;40284;52.878;5.998;2024-03-25T12:25:58;9.55;;;2.33;;
54384;SDS011;40284;52.878;5.998;2024-03-25T12:28:24;13.35;;;2.40;;
54384;SDS011;40284;52.878;5.998;2024-03-25T12:30:53;7.38;;;2.00;;
54384;SDS011;40284;52.878;5.998;2024-03-25T12:33:21;8.48;;;2.00;;
54384;SDS011;40284;52.878;5.998;2024-03-25T12:35:48;13.27;;;2.17;;
54384;SDS011;40284;52.878;5.998;2024-03-25T12:41:03;12.60;;;2.67;;
54384;SDS011;40284;52.878;5.998;2024-03-25T12:43:31;9.45;;;2.35;;
54384;SDS011;40284;52.878;5.998;2024-03-25T12:45:58;10.85;;;2.35;;
54384;SDS011;40284;52.878;5.998;2024-03-25T12:48:24;10.32;;;3.10;;
54384;SDS011;40284;52.878;5.998;2024-03-25T12:50:50;7.28;;;1.60;;
54384;SDS011;40284;52.878;5.998;2024-03-25T12:53:17;16.17;;;1.80;;
54384;SDS011;40284;52.878;5.998;2024-03-25T12:55:43;11.00;;;2.00;;
54384;SDS011;40284;52.878;5.998;2024-03-25T12:58:10;11.82;;;2.85;;
54384;SDS011;40284;52.878;5.998;2024-03-25T13:00:36;10.40;;;2.45;;
54384;SDS011;40284;52.878;5.998;2024-03-25T13:03:03;8.70;;;2.25;;
54384;SDS011;40284;52.878;5.998;2024-03-25T13:05:29;9.85;;;2.55;;
54384;SDS011;40284;52.878;5.998;2024-03-25T13:07:55;7.53;;;2.38;;
54384;SDS011;40284;52.878;5.998;2024-03-25T13:10:22;11.43;;;2.20;;
54384;SDS011;40284;52.878;5.998;2024-03-25T13:12:48;11.57;;;2.72;;
54384;SDS011;40284;52.878;5.998;2024-03-25T13:15:14;5.63;;;1.92;;
54384;SDS011;40284;52.878;5.998;2024-03-25T13:17:40;8.32;;;2.50;;
54384;SDS011;40284;52.878;5.998;2024-03-25T13:20:06;9.13;;;1.77;;
54384;SDS011;40284;52.878;5.998;2024-03-25T13:22:33;5.90;;;2.03;;
54384;SDS011;40284;52.878;5.998;2024-03-25T13:24:59;10.48;;;2.15;;
54384;SDS011;40284;52.878;5.998;2024-03-25T13:27:25;8.77;;;2.25;;
54384;SDS011;40284;52.878;5.998;2024-03-25T13:29:51;6.68;;;2.05;;
54384;SDS011;40284;52.878;5.998;2024-03-25T13:32:20;11.27;;;2.47;;
54384;SDS011;40284;52.878;5.998;2024-03-25T13:34:48;7.97;;;1.98;;
54384;SDS011;40284;52.878;5.998;2024-03-25T13:37:14;13.27;;;2.50;;
54384;SDS011;40284;52.878;5.998;2024-03-25T13:39:40;12.48;;;2.72;;
54384;SDS011;40284;52.878;5.998;2024-03-25T13:42:06;8.52;;;1.90;;
54384;SDS011;40284;52.878;5.998;2024-03-25T13:44:32;10.98;;;2.95;;
54384;SDS011;40284;52.878;5.998;2024-03-25T13:46:58;7.47;;;2.22;;
54384;SDS011;40284;52.878;5.998;2024-03-25T13:49:24;7.50;;;1.90;;
54384;SDS011;40284;52.878;5.998;2024-03-25T13:51:51;6.50;;;1.73;;
54384;SDS011;40284;52.878;5.998;2024-03-25T13:54:22;9.88;;;2.05;;
54384;SDS011;40284;52.878;5.998;2024-03-25T13:56:48;7.65;;;2.28;;
54384;SDS011;40284;52.878;5.998;2024-03-25T13:59:14;8.55;;;2.30;;
54384;SDS011;40284;52.878;5.998;2024-03-25T14:01:40;10.95;;;2.42;;
54384;SDS011;40284;52.878;5.998;2024-03-25T14:04:06;8.05;;;1.98;;
54384;SDS011;40284;52.878;5.998;2024-03-25T14:06:32;10.20;;;2.53;;
54384;SDS011;40284;52.878;5.998;2024-03-25T14:08:59;6.82;;;2.25;;
54384;SDS011;40284;52.878;5.998;2024-03-25T14:11:25;9.98;;;2.60;;
54384;SDS011;40284;52.878;5.998;2024-03-25T14:13:51;6.78;;;2.70;;
54384;SDS011;40284;52.878;5.998;2024-03-25T14:16:17;8.25;;;2.10;;
54384;SDS011;40284;52.878;5.998;2024-03-25T14:18:43;6.45;;;1.92;;
54384;SDS011;40284;52.878;5.998;2024-03-25T14:21:09;4.47;;;1.80;;
54384;SDS011;40284;52.878;5.998;2024-03-25T14:23:35;7.90;;;2.10;;
54384;SDS011;40284;52.878;5.998;2024-03-25T14:26:01;6.50;;;1.92;;
54384;SDS011;40284;52.878;5.998;2024-03-25T14:28:28;8.48;;;1.83;;
54384;SDS011;40284;52.878;5.998;2024-03-25T14:30:54;6.90;;;2.00;;
54384;SDS011;40284;52.878;5.998;2024-03-25T14:33:20;8.68;;;1.60;;
54384;SDS011;40284;52.878;5.998;2024-03-25T14:35:46;9.35;;;2.15;;
54384;SDS011;40284;52.878;5.998;2024-03-25T14:38:13;8.82;;;2.30;;